sensor_id;sensor_type;location;lat;lon;timestamp;P1;durP1;ratioP1;P2;durP2;ratioP2
21038;SDS011;10678;51.002;4.786;2022-11-18T00:01:17;5.07;;;1.45;;
21038;SDS011;10678;51.002;4.786;2022-11-18T00:03:45;10.05;;;1.65;;
21038;SDS011;10678;51.002;4.786;2022-11-18T00:06:15;8.63;;;1.80;;
21038;SDS011;10678;51.002;4.786;2022-11-18T00:08:45;5.68;;;1.35;;
21038;SDS011;10678;51.002;4.786;2022-11-18T00:11:12;4.65;;;1.40;;
21038;SDS011;10678;51.002;4.786;2022-11-18T00:13:58;5.65;;;1.58;;
21038;SDS011;10678;51.002;4.786;2022-11-18T00:16:43;7.47;;;1.67;;
21038;SDS011;10678;51.002;4.786;2022-11-18T00:19:24;8.43;;;1.30;;
21038;SDS011;10678;51.002;4.786;2022-11-18T00:21:52;10.80;;;1.65;;
21038;SDS011;10678;51.002;4.786;2022-11-18T00:24:18;5.90;;;1.58;;
21038;SDS011;10678;51.002;4.786;2022-11-18T00:26:44;4.05;;;1.20;;
21038;SDS011;10678;51.002;4.786;2022-11-18T00:29:10;6.03;;;1.45;;
21038;SDS011;10678;51.002;4.786;2022-11-18T00:31:36;4.05;;;1.38;;
21038;SDS011;10678;51.002;4.786;2022-11-18T00:34:02;4.18;;;1.00;;
21038;SDS011;10678;51.002;4.786;2022-11-18T00:36:28;7.10;;;1.20;;
21038;SDS011;10678;51.002;4.786;2022-11-18T00:38:54;4.68;;;1.30;;
21038;SDS011;10678;51.002;4.786;2022-11-18T00:41:20;7.07;;;1.45;;
21038;SDS011;10678;51.002;4.786;2022-11-18T00:43:45;9.13;;;1.88;;
21038;SDS011;10678;51.002;4.786;2022-11-18T00:46:11;3.53;;;1.13;;
21038;SDS011;10678;51.002;4.786;2022-11-18T00:48:37;3.90;;;1.50;;
21038;SDS011;10678;51.002;4.786;2022-11-18T00:51:13;5.60;;;1.17;;
21038;SDS011;10678;51.002;4.786;2022-11-18T00:53:41;5.22;;;1.10;;
21038;SDS011;10678;51.002;4.786;2022-11-18T00:56:07;7.03;;;1.30;;
21038;SDS011;10678;51.002;4.786;2022-11-18T00:58:33;4.88;;;1.20;;
21038;SDS011;10678;51.002;4.786;2022-11-18T01:00:59;5.45;;;1.30;;
21038;SDS011;10678;51.002;4.786;2022-11-18T01:03:26;3.90;;;1.20;;
21038;SDS011;10678;51.002;4.786;2022-11-18T01:05:55;4.50;;;1.10;;
21038;SDS011;10678;51.002;4.786;2022-11-18T01:08:20;4.18;;;1.20;;
21038;SDS011;10678;51.002;4.786;2022-11-18T01:10:47;5.68;;;1.10;;
21038;SDS011;10678;51.002;4.786;2022-11-18T01:13:15;4.75;;;1.40;;
21038;SDS011;10678;51.002;4.786;2022-11-18T01:18:21;6.93;;;1.77;;
21038;SDS011;10678;51.002;4.786;2022-11-18T01:20:51;6.85;;;1.30;;
21038;SDS011;10678;51.002;4.786;2022-11-18T01:23:17;7.13;;;1.30;;
21038;SDS011;10678;51.002;4.786;2022-11-18T01:25:44;7.40;;;1.17;;
21038;SDS011;10678;51.002;4.786;2022-11-18T01:28:11;6.65;;;1.30;;
21038;SDS011;10678;51.002;4.786;2022-11-18T01:30:38;7.20;;;1.55;;
21038;SDS011;10678;51.002;4.786;2022-11-18T01:33:05;5.50;;;1.48;;
21038;SDS011;10678;51.002;4.786;2022-11-18T01:35:35;3.97;;;1.50;;
21038;SDS011;10678;51.002;4.786;2022-11-18T01:38:02;5.28;;;1.38;;
21038;SDS011;10678;51.002;4.786;2022-11-18T01:40:28;4.25;;;1.42;;
21038;SDS011;10678;51.002;4.786;2022-11-18T01:42:55;4.15;;;1.20;;
21038;SDS011;10678;51.002;4.786;2022-11-18T01:50:47;5.95;;;1.63;;
21038;SDS011;10678;51.002;4.786;2022-11-18T01:53:26;8.38;;;1.40;;
21038;SDS011;10678;51.002;4.786;2022-11-18T01:55:56;5.78;;;1.30;;
21038;SDS011;10678;51.002;4.786;2022-11-18T01:58:28;7.72;;;1.50;;
21038;SDS011;10678;51.002;4.786;2022-11-18T02:00:59;9.77;;;2.90;;
21038;SDS011;10678;51.002;4.786;2022-11-18T02:03:26;6.07;;;1.40;;
21038;SDS011;10678;51.002;4.786;2022-11-18T02:05:52;5.28;;;1.25;;
21038;SDS011;10678;51.002;4.786;2022-11-18T02:08:19;4.22;;;1.40;;
21038;SDS011;10678;51.002;4.786;2022-11-18T02:10:46;6.93;;;1.60;;
21038;SDS011;10678;51.002;4.786;2022-11-18T02:13:12;5.20;;;1.50;;
21038;SDS011;10678;51.002;4.786;2022-11-18T02:18:22;5.72;;;1.20;;
21038;SDS011;10678;51.002;4.786;2022-11-18T02:20:55;5.20;;;1.27;;
21038;SDS011;10678;51.002;4.786;2022-11-18T02:26:27;4.35;;;1.33;;
21038;SDS011;10678;51.002;4.786;2022-11-18T02:29:26;5.18;;;1.10;;
21038;SDS011;10678;51.002;4.786;2022-11-18T02:31:58;9.57;;;1.35;;
21038;SDS011;10678;51.002;4.786;2022-11-18T02:34:38;3.58;;;1.13;;
21038;SDS011;10678;51.002;4.786;2022-11-18T02:37:15;5.85;;;1.00;;
21038;SDS011;10678;51.002;4.786;2022-11-18T02:42:43;5.00;;;1.15;;
21038;SDS011;10678;51.002;4.786;2022-11-18T02:45:13;6.25;;;1.60;;
21038;SDS011;10678;51.002;4.786;2022-11-18T02:47:42;5.75;;;1.30;;
21038;SDS011;10678;51.002;4.786;2022-11-18T02:50:12;4.13;;;1.35;;
21038;SDS011;10678;51.002;4.786;2022-11-18T02:52:41;4.53;;;1.20;;
21038;SDS011;10678;51.002;4.786;2022-11-18T02:55:10;5.53;;;1.60;;
21038;SDS011;10678;51.002;4.786;2022-11-18T02:57:39;7.00;;;1.50;;
21038;SDS011;10678;51.002;4.786;2022-11-18T03:00:07;6.70;;;1.30;;
21038;SDS011;10678;51.002;4.786;2022-11-18T03:02:46;6.97;;;1.20;;
21038;SDS011;10678;51.002;4.786;2022-11-18T03:05:18;5.70;;;1.40;;
21038;SDS011;10678;51.002;4.786;2022-11-18T03:08:10;3.75;;;1.38;;
21038;SDS011;10678;51.002;4.786;2022-11-18T03:10:42;6.22;;;1.40;;
21038;SDS011;10678;51.002;4.786;2022-11-18T03:13:36;4.78;;;1.20;;
21038;SDS011;10678;51.002;4.786;2022-11-18T03:16:22;5.25;;;1.45;;
21038;SDS011;10678;51.002;4.786;2022-11-18T03:21:42;3.22;;;1.33;;
21038;SDS011;10678;51.002;4.786;2022-11-18T03:24:17;3.45;;;1.20;;
21038;SDS011;10678;51.002;4.786;2022-11-18T03:26:49;6.25;;;1.45;;
21038;SDS011;10678;51.002;4.786;2022-11-18T03:29:24;5.72;;;1.50;;
21038;SDS011;10678;51.002;4.786;2022-11-18T03:31:57;4.03;;;1.58;;
21038;SDS011;10678;51.002;4.786;2022-11-18T03:34:27;4.07;;;1.35;;
21038;SDS011;10678;51.002;4.786;2022-11-18T03:37:04;6.57;;;1.30;;
21038;SDS011;10678;51.002;4.786;2022-11-18T03:39:33;5.75;;;1.63;;
21038;SDS011;10678;51.002;4.786;2022-11-18T03:42:09;8.48;;;2.05;;
21038;SDS011;10678;51.002;4.786;2022-11-18T03:44:43;8.13;;;1.55;;
21038;SDS011;10678;51.002;4.786;2022-11-18T03:47:15;7.60;;;1.70;;
21038;SDS011;10678;51.002;4.786;2022-11-18T03:49:46;4.72;;;1.50;;
21038;SDS011;10678;51.002;4.786;2022-11-18T03:52:17;7.40;;;1.50;;
21038;SDS011;10678;51.002;4.786;2022-11-18T03:54:47;11.85;;;1.60;;
21038;SDS011;10678;51.002;4.786;2022-11-18T03:57:20;6.60;;;1.67;;
21038;SDS011;10678;51.002;4.786;2022-11-18T03:59:58;9.13;;;1.73;;
21038;SDS011;10678;51.002;4.786;2022-11-18T04:02:31;8.43;;;1.80;;
21038;SDS011;10678;51.002;4.786;2022-11-18T04:04:57;6.18;;;1.67;;
21038;SDS011;10678;51.002;4.786;2022-11-18T04:10:01;5.10;;;1.50;;
21038;SDS011;10678;51.002;4.786;2022-11-18T04:12:42;6.70;;;2.40;;
21038;SDS011;10678;51.002;4.786;2022-11-18T04:15:11;4.20;;;1.83;;
21038;SDS011;10678;51.002;4.786;2022-11-18T04:17:39;5.87;;;1.93;;
21038;SDS011;10678;51.002;4.786;2022-11-18T04:20:08;5.67;;;1.87;;
21038;SDS011;10678;51.002;4.786;2022-11-18T04:22:38;5.83;;;1.90;;
21038;SDS011;10678;51.002;4.786;2022-11-18T04:25:03;5.20;;;1.70;;
21038;SDS011;10678;51.002;4.786;2022-11-18T04:27:29;7.80;;;1.90;;
21038;SDS011;10678;51.002;4.786;2022-11-18T04:29:54;4.70;;;1.80;;
21038;SDS011;10678;51.002;4.786;2022-11-18T04:32:20;6.07;;;2.07;;
21038;SDS011;10678;51.002;4.786;2022-11-18T04:34:45;6.53;;;1.77;;
21038;SDS011;10678;51.002;4.786;2022-11-18T04:37:11;6.47;;;2.40;;
21038;SDS011;10678;51.002;4.786;2022-11-18T04:39:37;10.53;;;1.77;;
21038;SDS011;10678;51.002;4.786;2022-11-18T04:42:02;12.87;;;3.27;;
21038;SDS011;10678;51.002;4.786;2022-11-18T04:44:31;10.87;;;2.47;;
21038;SDS011;10678;51.002;4.786;2022-11-18T04:46:59;8.80;;;2.07;;
21038;SDS011;10678;51.002;4.786;2022-11-18T04:49:26;6.90;;;1.90;;
21038;SDS011;10678;51.002;4.786;2022-11-18T04:51:52;7.33;;;2.07;;
21038;SDS011;10678;51.002;4.786;2022-11-18T04:54:18;6.83;;;2.40;;
21038;SDS011;10678;51.002;4.786;2022-11-18T04:56:45;9.20;;;2.27;;
21038;SDS011;10678;51.002;4.786;2022-11-18T04:59:12;9.63;;;2.10;;
21038;SDS011;10678;51.002;4.786;2022-11-18T05:01:38;7.17;;;2.10;;
21038;SDS011;10678;51.002;4.786;2022-11-18T05:04:04;6.07;;;1.80;;
21038;SDS011;10678;51.002;4.786;2022-11-18T05:06:30;7.50;;;2.50;;
21038;SDS011;10678;51.002;4.786;2022-11-18T05:08:57;4.53;;;1.90;;
21038;SDS011;10678;51.002;4.786;2022-11-18T05:11:23;7.97;;;2.33;;
21038;SDS011;10678;51.002;4.786;2022-11-18T05:14:08;8.03;;;2.17;;
21038;SDS011;10678;51.002;4.786;2022-11-18T05:16:34;6.23;;;1.70;;
21038;SDS011;10678;51.002;4.786;2022-11-18T05:19:03;7.27;;;1.80;;
21038;SDS011;10678;51.002;4.786;2022-11-18T05:21:30;7.90;;;2.00;;
21038;SDS011;10678;51.002;4.786;2022-11-18T05:23:57;5.32;;;2.05;;
21038;SDS011;10678;51.002;4.786;2022-11-18T05:26:23;9.17;;;2.23;;
21038;SDS011;10678;51.002;4.786;2022-11-18T05:28:49;7.27;;;1.90;;
21038;SDS011;10678;51.002;4.786;2022-11-18T05:31:15;5.47;;;1.70;;
21038;SDS011;10678;51.002;4.786;2022-11-18T05:33:41;7.67;;;1.90;;
21038;SDS011;10678;51.002;4.786;2022-11-18T05:36:08;5.63;;;1.87;;
21038;SDS011;10678;51.002;4.786;2022-11-18T05:38:36;6.83;;;2.23;;
21038;SDS011;10678;51.002;4.786;2022-11-18T05:41:02;9.47;;;2.00;;
21038;SDS011;10678;51.002;4.786;2022-11-18T05:43:29;6.97;;;1.60;;
21038;SDS011;10678;51.002;4.786;2022-11-18T05:45:55;11.73;;;2.30;;
21038;SDS011;10678;51.002;4.786;2022-11-18T05:48:21;4.50;;;1.57;;
21038;SDS011;10678;51.002;4.786;2022-11-18T05:50:49;6.40;;;1.63;;
21038;SDS011;10678;51.002;4.786;2022-11-18T05:53:17;5.27;;;1.40;;
21038;SDS011;10678;51.002;4.786;2022-11-18T05:58:29;8.33;;;2.10;;
21038;SDS011;10678;51.002;4.786;2022-11-18T06:00:54;9.00;;;2.33;;
21038;SDS011;10678;51.002;4.786;2022-11-18T06:03:26;9.33;;;2.57;;
21038;SDS011;10678;51.002;4.786;2022-11-18T06:05:55;5.83;;;1.93;;
21038;SDS011;10678;51.002;4.786;2022-11-18T06:08:24;8.13;;;1.83;;
21038;SDS011;10678;51.002;4.786;2022-11-18T06:10:53;9.97;;;2.10;;
21038;SDS011;10678;51.002;4.786;2022-11-18T06:13:23;7.60;;;2.17;;
21038;SDS011;10678;51.002;4.786;2022-11-18T06:15:52;8.43;;;2.53;;
21038;SDS011;10678;51.002;4.786;2022-11-18T06:20:48;7.17;;;2.00;;
21038;SDS011;10678;51.002;4.786;2022-11-18T06:23:17;7.00;;;1.77;;
21038;SDS011;10678;51.002;4.786;2022-11-18T06:25:42;12.63;;;2.20;;
21038;SDS011;10678;51.002;4.786;2022-11-18T06:28:09;8.67;;;2.40;;
21038;SDS011;10678;51.002;4.786;2022-11-18T06:30:38;6.77;;;2.30;;
21038;SDS011;10678;51.002;4.786;2022-11-18T06:33:03;9.07;;;1.80;;
21038;SDS011;10678;51.002;4.786;2022-11-18T06:35:29;5.47;;;1.93;;
21038;SDS011;10678;51.002;4.786;2022-11-18T06:37:54;10.37;;;2.83;;
21038;SDS011;10678;51.002;4.786;2022-11-18T06:40:20;13.43;;;2.50;;
21038;SDS011;10678;51.002;4.786;2022-11-18T06:42:46;7.03;;;2.00;;
21038;SDS011;10678;51.002;4.786;2022-11-18T06:45:30;10.23;;;2.43;;
21038;SDS011;10678;51.002;4.786;2022-11-18T06:47:56;6.93;;;1.80;;
21038;SDS011;10678;51.002;4.786;2022-11-18T06:50:22;7.27;;;2.20;;
21038;SDS011;10678;51.002;4.786;2022-11-18T06:52:48;8.03;;;1.83;;
21038;SDS011;10678;51.002;4.786;2022-11-18T06:55:13;10.23;;;2.00;;
21038;SDS011;10678;51.002;4.786;2022-11-18T06:57:39;6.10;;;1.93;;
21038;SDS011;10678;51.002;4.786;2022-11-18T07:00:05;16.93;;;2.27;;
21038;SDS011;10678;51.002;4.786;2022-11-18T07:02:31;13.57;;;2.60;;
21038;SDS011;10678;51.002;4.786;2022-11-18T07:04:59;7.10;;;2.13;;
21038;SDS011;10678;51.002;4.786;2022-11-18T07:07:25;7.70;;;2.50;;
21038;SDS011;10678;51.002;4.786;2022-11-18T07:09:51;9.83;;;2.00;;
21038;SDS011;10678;51.002;4.786;2022-11-18T07:12:16;8.57;;;2.70;;
21038;SDS011;10678;51.002;4.786;2022-11-18T07:14:42;5.37;;;2.17;;
21038;SDS011;10678;51.002;4.786;2022-11-18T07:17:07;9.10;;;2.40;;
21038;SDS011;10678;51.002;4.786;2022-11-18T07:19:33;12.33;;;2.87;;
21038;SDS011;10678;51.002;4.786;2022-11-18T07:21:59;8.00;;;2.50;;
21038;SDS011;10678;51.002;4.786;2022-11-18T07:24:25;8.77;;;1.90;;
21038;SDS011;10678;51.002;4.786;2022-11-18T07:26:51;7.43;;;2.30;;
21038;SDS011;10678;51.002;4.786;2022-11-18T07:29:18;7.13;;;2.40;;
21038;SDS011;10678;51.002;4.786;2022-11-18T07:31:44;14.53;;;2.40;;
21038;SDS011;10678;51.002;4.786;2022-11-18T07:34:10;6.83;;;2.10;;
21038;SDS011;10678;51.002;4.786;2022-11-18T07:36:36;7.50;;;1.90;;
21038;SDS011;10678;51.002;4.786;2022-11-18T07:39:03;13.53;;;2.10;;
21038;SDS011;10678;51.002;4.786;2022-11-18T07:41:30;11.03;;;2.67;;
21038;SDS011;10678;51.002;4.786;2022-11-18T07:43:57;10.43;;;2.27;;
21038;SDS011;10678;51.002;4.786;2022-11-18T07:46:25;11.13;;;2.03;;
21038;SDS011;10678;51.002;4.786;2022-11-18T07:48:53;9.40;;;2.53;;
21038;SDS011;10678;51.002;4.786;2022-11-18T07:51:22;8.40;;;2.03;;
21038;SDS011;10678;51.002;4.786;2022-11-18T07:53:49;12.67;;;2.53;;
21038;SDS011;10678;51.002;4.786;2022-11-18T07:56:15;8.40;;;2.40;;
21038;SDS011;10678;51.002;4.786;2022-11-18T07:58:41;12.47;;;2.17;;
21038;SDS011;10678;51.002;4.786;2022-11-18T08:03:34;13.55;;;2.38;;
21038;SDS011;10678;51.002;4.786;2022-11-18T08:06:00;10.37;;;2.40;;
21038;SDS011;10678;51.002;4.786;2022-11-18T08:08:27;10.77;;;2.47;;
21038;SDS011;10678;51.002;4.786;2022-11-18T08:10:59;10.88;;;2.55;;
21038;SDS011;10678;51.002;4.786;2022-11-18T08:13:26;7.90;;;1.97;;
21038;SDS011;10678;51.002;4.786;2022-11-18T08:15:52;8.57;;;2.50;;
21038;SDS011;10678;51.002;4.786;2022-11-18T08:18:19;5.70;;;1.85;;
21038;SDS011;10678;51.002;4.786;2022-11-18T08:20:45;6.43;;;1.58;;
21038;SDS011;10678;51.002;4.786;2022-11-18T08:23:11;6.13;;;1.73;;
21038;SDS011;10678;51.002;4.786;2022-11-18T08:25:37;10.15;;;1.85;;
21038;SDS011;10678;51.002;4.786;2022-11-18T08:28:03;5.80;;;1.50;;
21038;SDS011;10678;51.002;4.786;2022-11-18T08:30:29;9.70;;;2.10;;
21038;SDS011;10678;51.002;4.786;2022-11-18T08:32:57;6.72;;;2.03;;
21038;SDS011;10678;51.002;4.786;2022-11-18T08:35:22;11.88;;;1.83;;
21038;SDS011;10678;51.002;4.786;2022-11-18T08:37:50;9.00;;;1.98;;
21038;SDS011;10678;51.002;4.786;2022-11-18T08:40:15;9.13;;;1.85;;
21038;SDS011;10678;51.002;4.786;2022-11-18T08:42:41;10.95;;;2.00;;
21038;SDS011;10678;51.002;4.786;2022-11-18T08:45:07;6.90;;;1.60;;
21038;SDS011;10678;51.002;4.786;2022-11-18T08:47:33;4.25;;;1.50;;
21038;SDS011;10678;51.002;4.786;2022-11-18T08:49:59;8.77;;;2.75;;
21038;SDS011;10678;51.002;4.786;2022-11-18T08:52:26;8.63;;;2.13;;
21038;SDS011;10678;51.002;4.786;2022-11-18T08:54:51;8.68;;;2.13;;
21038;SDS011;10678;51.002;4.786;2022-11-18T08:57:17;7.13;;;2.10;;
21038;SDS011;10678;51.002;4.786;2022-11-18T08:59:42;9.27;;;2.13;;
21038;SDS011;10678;51.002;4.786;2022-11-18T09:02:14;11.35;;;2.30;;
21038;SDS011;10678;51.002;4.786;2022-11-18T09:04:45;7.85;;;2.25;;
21038;SDS011;10678;51.002;4.786;2022-11-18T09:07:11;7.43;;;2.20;;
21038;SDS011;10678;51.002;4.786;2022-11-18T09:09:37;7.63;;;2.20;;
21038;SDS011;10678;51.002;4.786;2022-11-18T09:12:03;6.93;;;2.33;;
21038;SDS011;10678;51.002;4.786;2022-11-18T09:14:29;7.65;;;2.00;;
21038;SDS011;10678;51.002;4.786;2022-11-18T09:16:55;11.73;;;2.05;;
21038;SDS011;10678;51.002;4.786;2022-11-18T09:19:20;9.73;;;2.65;;
21038;SDS011;10678;51.002;4.786;2022-11-18T09:21:46;10.98;;;2.40;;
21038;SDS011;10678;51.002;4.786;2022-11-18T09:24:12;13.35;;;3.03;;
21038;SDS011;10678;51.002;4.786;2022-11-18T09:26:37;9.63;;;2.03;;
21038;SDS011;10678;51.002;4.786;2022-11-18T09:29:03;7.10;;;2.30;;
21038;SDS011;10678;51.002;4.786;2022-11-18T09:31:29;11.70;;;2.78;;
21038;SDS011;10678;51.002;4.786;2022-11-18T09:33:55;8.43;;;2.10;;
21038;SDS011;10678;51.002;4.786;2022-11-18T09:36:23;8.02;;;3.30;;
21038;SDS011;10678;51.002;4.786;2022-11-18T09:38:50;9.05;;;2.40;;
21038;SDS011;10678;51.002;4.786;2022-11-18T09:41:30;9.75;;;2.22;;
21038;SDS011;10678;51.002;4.786;2022-11-18T09:47:17;11.07;;;2.00;;
21038;SDS011;10678;51.002;4.786;2022-11-18T09:49:52;9.35;;;2.30;;
21038;SDS011;10678;51.002;4.786;2022-11-18T09:52:27;6.97;;;2.22;;
21038;SDS011;10678;51.002;4.786;2022-11-18T09:55:00;6.32;;;1.92;;
21038;SDS011;10678;51.002;4.786;2022-11-18T09:57:39;9.95;;;1.98;;
21038;SDS011;10678;51.002;4.786;2022-11-18T10:00:18;6.18;;;1.80;;
21038;SDS011;10678;51.002;4.786;2022-11-18T10:02:59;9.05;;;2.25;;
21038;SDS011;10678;51.002;4.786;2022-11-18T10:08:14;8.23;;;2.55;;
21038;SDS011;10678;51.002;4.786;2022-11-18T10:19:26;7.10;;;1.98;;
21038;SDS011;10678;51.002;4.786;2022-11-18T10:24:54;7.07;;;1.70;;
21038;SDS011;10678;51.002;4.786;2022-11-18T10:27:22;9.07;;;2.15;;
21038;SDS011;10678;51.002;4.786;2022-11-18T10:29:57;7.07;;;1.83;;
21038;SDS011;10678;51.002;4.786;2022-11-18T10:32:25;8.93;;;1.73;;
21038;SDS011;10678;51.002;4.786;2022-11-18T10:34:52;7.45;;;1.73;;
21038;SDS011;10678;51.002;4.786;2022-11-18T10:37:29;6.93;;;1.67;;
21038;SDS011;10678;51.002;4.786;2022-11-18T10:39:57;7.00;;;1.83;;
21038;SDS011;10678;51.002;4.786;2022-11-18T10:45:15;4.82;;;1.75;;
21038;SDS011;10678;51.002;4.786;2022-11-18T10:47:59;6.80;;;1.70;;
21038;SDS011;10678;51.002;4.786;2022-11-18T10:50:37;9.13;;;2.60;;
21038;SDS011;10678;51.002;4.786;2022-11-18T10:53:05;10.05;;;1.52;;
21038;SDS011;10678;51.002;4.786;2022-11-18T10:55:58;5.43;;;1.52;;
21038;SDS011;10678;51.002;4.786;2022-11-18T10:58:27;8.00;;;1.85;;
21038;SDS011;10678;51.002;4.786;2022-11-18T11:01:03;6.15;;;1.45;;
21038;SDS011;10678;51.002;4.786;2022-11-18T11:03:31;7.15;;;2.30;;
21038;SDS011;10678;51.002;4.786;2022-11-18T11:08:51;7.57;;;1.55;;
21038;SDS011;10678;51.002;4.786;2022-11-18T11:11:22;8.18;;;1.75;;
21038;SDS011;10678;51.002;4.786;2022-11-18T11:13:51;8.02;;;1.60;;
21038;SDS011;10678;51.002;4.786;2022-11-18T11:16:20;7.53;;;1.63;;
21038;SDS011;10678;51.002;4.786;2022-11-18T11:18:47;11.93;;;2.13;;
21038;SDS011;10678;51.002;4.786;2022-11-18T11:21:20;8.18;;;2.00;;
21038;SDS011;10678;51.002;4.786;2022-11-18T11:23:49;5.97;;;1.40;;
21038;SDS011;10678;51.002;4.786;2022-11-18T11:28:52;7.25;;;1.65;;
21038;SDS011;10678;51.002;4.786;2022-11-18T11:34:42;5.45;;;1.60;;
21038;SDS011;10678;51.002;4.786;2022-11-18T11:37:28;8.25;;;1.38;;
21038;SDS011;10678;51.002;4.786;2022-11-18T11:40:22;6.82;;;1.45;;
21038;SDS011;10678;51.002;4.786;2022-11-18T11:48:55;5.03;;;1.40;;
21038;SDS011;10678;51.002;4.786;2022-11-18T11:56:24;10.13;;;1.63;;
21038;SDS011;10678;51.002;4.786;2022-11-18T12:04:23;7.43;;;2.10;;
21038;SDS011;10678;51.002;4.786;2022-11-18T12:07:05;13.00;;;2.65;;
21038;SDS011;10678;51.002;4.786;2022-11-18T12:09:45;7.63;;;1.95;;
21038;SDS011;10678;51.002;4.786;2022-11-18T12:20:47;9.48;;;1.98;;
21038;SDS011;10678;51.002;4.786;2022-11-18T12:23:15;6.00;;;2.15;;
21038;SDS011;10678;51.002;4.786;2022-11-18T12:33:48;5.90;;;1.65;;
21038;SDS011;10678;51.002;4.786;2022-11-18T12:44:46;8.15;;;2.30;;
21038;SDS011;10678;51.002;4.786;2022-11-18T12:47:15;11.60;;;3.58;;
21038;SDS011;10678;51.002;4.786;2022-11-18T12:52:51;5.13;;;1.65;;
21038;SDS011;10678;51.002;4.786;2022-11-18T12:55:23;10.75;;;2.30;;
21038;SDS011;10678;51.002;4.786;2022-11-18T12:57:50;8.80;;;2.22;;
21038;SDS011;10678;51.002;4.786;2022-11-18T13:02:51;9.00;;;2.40;;
21038;SDS011;10678;51.002;4.786;2022-11-18T13:05:18;5.50;;;1.90;;
21038;SDS011;10678;51.002;4.786;2022-11-18T13:07:48;9.82;;;1.92;;
21038;SDS011;10678;51.002;4.786;2022-11-18T13:10:49;11.93;;;2.00;;
21038;SDS011;10678;51.002;4.786;2022-11-18T13:13:26;7.50;;;1.80;;
21038;SDS011;10678;51.002;4.786;2022-11-18T13:16:03;7.78;;;2.70;;
21038;SDS011;10678;51.002;4.786;2022-11-18T13:18:57;20.10;;;2.58;;
21038;SDS011;10678;51.002;4.786;2022-11-18T13:21:24;9.50;;;2.53;;
21038;SDS011;10678;51.002;4.786;2022-11-18T13:24:10;7.97;;;2.20;;
21038;SDS011;10678;51.002;4.786;2022-11-18T13:26:38;14.68;;;3.60;;
21038;SDS011;10678;51.002;4.786;2022-11-18T13:34:19;8.32;;;2.42;;
21038;SDS011;10678;51.002;4.786;2022-11-18T13:36:46;8.93;;;2.97;;
21038;SDS011;10678;51.002;4.786;2022-11-18T13:39:17;7.95;;;2.80;;
21038;SDS011;10678;51.002;4.786;2022-11-18T13:41:57;11.98;;;3.03;;
21038;SDS011;10678;51.002;4.786;2022-11-18T13:44:23;13.00;;;2.85;;
21038;SDS011;10678;51.002;4.786;2022-11-18T13:49:41;10.25;;;2.88;;
21038;SDS011;10678;51.002;4.786;2022-11-18T13:52:14;9.57;;;2.97;;
21038;SDS011;10678;51.002;4.786;2022-11-18T13:54:46;8.13;;;3.20;;
21038;SDS011;10678;51.002;4.786;2022-11-18T13:57:18;7.53;;;3.00;;
21038;SDS011;10678;51.002;4.786;2022-11-18T13:59:47;10.52;;;4.00;;
21038;SDS011;10678;51.002;4.786;2022-11-18T14:02:14;12.98;;;3.53;;
21038;SDS011;10678;51.002;4.786;2022-11-18T14:04:48;10.57;;;3.58;;
21038;SDS011;10678;51.002;4.786;2022-11-18T14:09:54;8.88;;;2.80;;
21038;SDS011;10678;51.002;4.786;2022-11-18T14:12:26;12.35;;;3.55;;
21038;SDS011;10678;51.002;4.786;2022-11-18T14:15:10;11.55;;;3.38;;
21038;SDS011;10678;51.002;4.786;2022-11-18T14:17:51;9.30;;;2.97;;
21038;SDS011;10678;51.002;4.786;2022-11-18T14:20:23;8.93;;;3.30;;
21038;SDS011;10678;51.002;4.786;2022-11-18T14:22:54;14.23;;;3.70;;
21038;SDS011;10678;51.002;4.786;2022-11-18T14:25:26;9.75;;;3.13;;
21038;SDS011;10678;51.002;4.786;2022-11-18T14:28:08;10.73;;;3.25;;
21038;SDS011;10678;51.002;4.786;2022-11-18T14:41:03;10.32;;;3.33;;
21038;SDS011;10678;51.002;4.786;2022-11-18T14:43:31;18.40;;;4.13;;
21038;SDS011;10678;51.002;4.786;2022-11-18T14:45:57;11.38;;;3.33;;
21038;SDS011;10678;51.002;4.786;2022-11-18T14:48:26;11.75;;;3.13;;
21038;SDS011;10678;51.002;4.786;2022-11-18T14:50:52;9.93;;;3.33;;
21038;SDS011;10678;51.002;4.786;2022-11-18T14:53:18;8.82;;;3.33;;
21038;SDS011;10678;51.002;4.786;2022-11-18T14:55:46;8.48;;;3.83;;
21038;SDS011;10678;51.002;4.786;2022-11-18T14:58:13;8.10;;;3.03;;
21038;SDS011;10678;51.002;4.786;2022-11-18T15:00:40;9.15;;;3.53;;
21038;SDS011;10678;51.002;4.786;2022-11-18T15:03:07;12.00;;;3.60;;
21038;SDS011;10678;51.002;4.786;2022-11-18T15:05:32;11.35;;;4.07;;
21038;SDS011;10678;51.002;4.786;2022-11-18T15:07:58;13.20;;;7.18;;
21038;SDS011;10678;51.002;4.786;2022-11-18T15:10:24;13.90;;;6.20;;
21038;SDS011;10678;51.002;4.786;2022-11-18T15:12:49;14.00;;;6.75;;
21038;SDS011;10678;51.002;4.786;2022-11-18T15:15:15;17.08;;;6.80;;
21038;SDS011;10678;51.002;4.786;2022-11-18T15:17:40;18.10;;;6.05;;
21038;SDS011;10678;51.002;4.786;2022-11-18T15:20:08;20.08;;;6.18;;
21038;SDS011;10678;51.002;4.786;2022-11-18T15:22:36;14.60;;;6.05;;
21038;SDS011;10678;51.002;4.786;2022-11-18T15:25:02;13.40;;;5.57;;
21038;SDS011;10678;51.002;4.786;2022-11-18T15:27:28;14.35;;;6.78;;
21038;SDS011;10678;51.002;4.786;2022-11-18T15:29:54;17.50;;;6.38;;
21038;SDS011;10678;51.002;4.786;2022-11-18T15:32:20;16.98;;;6.78;;
21038;SDS011;10678;51.002;4.786;2022-11-18T15:34:45;10.65;;;5.82;;
21038;SDS011;10678;51.002;4.786;2022-11-18T15:37:12;16.65;;;6.82;;
21038;SDS011;10678;51.002;4.786;2022-11-18T15:39:38;12.90;;;6.43;;
21038;SDS011;10678;51.002;4.786;2022-11-18T15:42:03;16.52;;;6.03;;
21038;SDS011;10678;51.002;4.786;2022-11-18T15:44:29;14.05;;;6.00;;
21038;SDS011;10678;51.002;4.786;2022-11-18T15:46:55;11.38;;;5.18;;
21038;SDS011;10678;51.002;4.786;2022-11-18T15:49:21;12.30;;;5.05;;
21038;SDS011;10678;51.002;4.786;2022-11-18T15:51:47;15.45;;;4.78;;
21038;SDS011;10678;51.002;4.786;2022-11-18T15:54:13;17.33;;;6.95;;
21038;SDS011;10678;51.002;4.786;2022-11-18T15:56:38;13.95;;;6.97;;
21038;SDS011;10678;51.002;4.786;2022-11-18T15:59:09;16.83;;;7.10;;
21038;SDS011;10678;51.002;4.786;2022-11-18T16:01:40;17.58;;;6.60;;
21038;SDS011;10678;51.002;4.786;2022-11-18T16:04:07;13.93;;;5.82;;
21038;SDS011;10678;51.002;4.786;2022-11-18T16:06:35;17.35;;;6.38;;
21038;SDS011;10678;51.002;4.786;2022-11-18T16:09:01;34.97;;;20.40;;
21038;SDS011;10678;51.002;4.786;2022-11-18T16:11:28;35.67;;;17.75;;
21038;SDS011;10678;51.002;4.786;2022-11-18T16:14:13;57.28;;;34.10;;
21038;SDS011;10678;51.002;4.786;2022-11-18T16:16:41;16.13;;;9.77;;
21038;SDS011;10678;51.002;4.786;2022-11-18T16:19:08;16.98;;;8.45;;
21038;SDS011;10678;51.002;4.786;2022-11-18T16:21:37;17.85;;;8.02;;
21038;SDS011;10678;51.002;4.786;2022-11-18T16:24:04;17.45;;;8.13;;
21038;SDS011;10678;51.002;4.786;2022-11-18T16:26:32;12.85;;;5.93;;
21038;SDS011;10678;51.002;4.786;2022-11-18T16:28:58;15.02;;;7.25;;
21038;SDS011;10678;51.002;4.786;2022-11-18T16:31:24;16.80;;;6.85;;
21038;SDS011;10678;51.002;4.786;2022-11-18T16:36:34;10.55;;;5.80;;
21038;SDS011;10678;51.002;4.786;2022-11-18T16:39:20;12.05;;;5.47;;
21038;SDS011;10678;51.002;4.786;2022-11-18T16:41:49;14.65;;;5.90;;
21038;SDS011;10678;51.002;4.786;2022-11-18T16:44:16;15.75;;;6.03;;
21038;SDS011;10678;51.002;4.786;2022-11-18T16:46:49;19.60;;;5.80;;
21038;SDS011;10678;51.002;4.786;2022-11-18T16:49:17;16.88;;;6.32;;
21038;SDS011;10678;51.002;4.786;2022-11-18T16:51:45;13.57;;;6.78;;
21038;SDS011;10678;51.002;4.786;2022-11-18T16:54:22;21.05;;;7.30;;
21038;SDS011;10678;51.002;4.786;2022-11-18T16:56:50;11.52;;;6.93;;
21038;SDS011;10678;51.002;4.786;2022-11-18T16:59:21;14.05;;;6.95;;
21038;SDS011;10678;51.002;4.786;2022-11-18T17:01:49;13.68;;;7.13;;
21038;SDS011;10678;51.002;4.786;2022-11-18T17:04:16;18.10;;;8.02;;
21038;SDS011;10678;51.002;4.786;2022-11-18T17:06:42;14.55;;;8.35;;